Pitkin, Louisiana
Current Conditions -  °F | °C
As of 3:54 PM on Wednesday 28 Jan 2015 (Local Time) from KBKB Reporting Station
Clear Clear  
Wind Chill: 75°   Ceiling: Unl
Heat Index: 75°   Visibility: 10mi
Dew Point: 38°   Wind: 5mph
Humidity: 26%   Direction: NA
Pressure: 30.13"   Gusts: NA
Location:  30.94°N, 92.94°W
Report Text: KBKB 282154Z AUTO VRB04KT 10SM CLR 24/03 A3013 RMK AO2 SLP230 T02390033
Loading
Personal Weather Stations






























Interactive Weather Map New forecast layout! Learn more

10-Day Weather Forecast

Advertisements
Track Severe Weather on mobile